Time;durP1;ratioP1;P1;durP2;ratioP2;P2;SDS_P1;SDS_P2;PMS_P1;PMS_P2;Temp;Humidity;BMP_temperature;BMP_pressure;BME280_temperature;BME280_humidity;BME280_pressure;Samples;Min_cycle;Max_cycle;Signal;HPM_P1;HPM_P2
2021/12/15 00:00:24;;;;;;;26.30;13.03;;;;;;;11.90;69.82;102516.16;4940070;28;99523;-89
2021/12/15 00:02:51;;;;;;;29.13;13.70;;;;;;;11.90;69.94;102508.63;4961523;28;96839;-88
2021/12/15 00:05:22;;;;;;;27.37;12.30;;;;;;;11.93;69.71;102529.00;4946886;28;96938;-88
2021/12/15 00:07:54;;;;;;;26.93;12.83;;;;;;;11.95;69.84;102508.03;4946009;28;96927;-89
2021/12/15 00:10:22;;;;;;;33.07;14.13;;;;;;;11.95;69.84;102505.28;4942113;28;100209;-88
2021/12/15 00:12:48;;;;;;;29.30;13.13;;;;;;;11.92;69.77;102505.44;4963443;28;98635;-88
2021/12/15 00:15:14;;;;;;;28.97;14.90;;;;;;;11.85;69.78;102523.03;4941756;28;97083;-89
2021/12/15 00:17:40;;;;;;;29.80;13.47;;;;;;;11.95;69.86;102508.03;4943968;28;97637;-88
2021/12/15 00:20:09;;;;;;;28.07;13.57;;;;;;;11.95;69.68;102505.28;4963023;28;97053;-89
2021/12/15 00:22:36;;;;;;;24.60;12.40;;;;;;;11.94;69.86;102509.28;4943667;28;97409;-90
2021/12/15 00:25:04;;;;;;;27.70;13.67;;;;;;;11.93;69.85;102516.00;4946382;28;97082;-89
2021/12/15 00:27:29;;;;;;;27.30;13.57;;;;;;;11.95;69.83;102513.53;4945339;28;103049;-89
2021/12/15 00:29:55;;;;;;;31.17;12.83;;;;;;;11.94;69.88;102522.28;4943948;28;97927;-89
2021/12/15 00:32:20;;;;;;;27.87;12.77;;;;;;;11.96;69.82;102517.84;4938267;28;96843;-88
2021/12/15 00:34:48;;;;;;;21.77;11.60;;;;;;;11.99;69.98;102521.69;4944240;28;96909;-87
2021/12/15 00:37:13;;;;;;;26.67;13.50;;;;;;;11.98;69.76;102523.69;4943999;28;100049;-88
2021/12/15 00:39:39;;;;;;;27.70;12.50;;;;;;;12.01;69.80;102516.47;4944837;28;102160;-88
2021/12/15 00:42:04;;;;;;;30.50;13.10;;;;;;;12.02;69.72;102518.00;4941241;28;97071;-88
2021/12/15 00:44:30;;;;;;;22.90;12.43;;;;;;;12.01;69.81;102503.44;4945821;28;97002;-89
2021/12/15 00:46:56;;;;;;;23.17;12.73;;;;;;;12.02;69.76;102499.47;4943578;28;96931;-90
2021/12/15 00:49:23;;;;;;;24.43;13.10;;;;;;;12.01;69.98;102500.69;4943767;28;97977;-89
2021/12/15 00:51:49;;;;;;;29.13;12.27;;;;;;;11.99;69.86;102500.38;4968388;28;96777;-88
2021/12/15 00:54:15;;;;;;;25.30;12.90;;;;;;;12.01;69.90;102508.22;4944416;28;97232;-89
2021/12/15 00:56:41;;;;;;;28.27;13.00;;;;;;;12.02;69.90;102510.50;4963393;28;100219;-89
2021/12/15 00:59:09;;;;;;;28.17;14.30;;;;;;;12.00;69.83;102515.72;4968397;28;99258;-89
2021/12/15 01:01:37;;;;;;;24.70;11.67;;;;;;;12.03;69.82;102522.31;4941184;28;96951;-89
2021/12/15 01:04:04;;;;;;;24.87;12.70;;;;;;;12.04;69.85;102510.81;4944496;28;96983;-89
2021/12/15 01:06:30;;;;;;;23.73;11.80;;;;;;;12.09;69.90;102503.16;4935341;28;97330;-88
2021/12/15 01:09:01;;;;;;;27.97;14.50;;;;;;;12.08;69.77;102510.66;4943081;28;99736;-88
2021/12/15 01:22:14;;;;;;;23.67;12.10;;;;;;;12.12;69.84;102529.84;4942256;28;97149;-89
2021/12/15 01:24:40;;;;;;;30.13;14.20;;;;;;;12.14;69.79;102508.06;4941812;28;97365;-88
2021/12/15 01:27:05;;;;;;;27.37;13.20;;;;;;;12.16;69.71;102513.91;4947016;28;97958;-89
2021/12/15 01:29:31;;;;;;;27.73;12.70;;;;;;;12.15;69.71;102524.16;4949603;28;97103;-89
2021/12/15 01:31:57;;;;;;;25.10;12.40;;;;;;;12.17;69.90;102524.47;4949571;28;96838;-89
2021/12/15 01:34:22;;;;;;;35.43;13.20;;;;;;;12.16;69.98;102525.72;4947912;28;97784;-89
2021/12/15 01:36:48;;;;;;;23.80;12.00;;;;;;;12.16;69.96;102522.19;4946522;28;96937;-89
2021/12/15 01:39:14;;;;;;;28.47;13.20;;;;;;;12.18;69.90;102539.03;4966897;28;97558;-88
2021/12/15 01:41:39;;;;;;;26.67;12.67;;;;;;;12.21;69.84;102529.84;4948402;28;97076;-88
2021/12/15 01:46:55;;;;;;;28.80;12.27;;;;;;;12.20;69.91;102531.06;4949615;28;96929;-89
2021/12/15 01:49:23;;;;;;;26.80;12.20;;;;;;;12.20;69.72;102537.38;4947287;28;100403;-88
2021/12/15 01:51:49;;;;;;;27.03;13.93;;;;;;;12.16;69.77;102533.97;4963088;28;97004;-90
2021/12/15 01:54:16;;;;;;;24.03;11.93;;;;;;;12.20;69.89;102533.81;4946898;28;97778;-89
2021/12/15 01:56:42;;;;;;;21.37;11.80;;;;;;;12.20;69.82;102544.88;4947766;28;97048;-89
2021/12/15 01:59:10;;;;;;;28.83;11.70;;;;;;;12.23;69.80;102530.91;4945969;28;97688;-89
2021/12/15 02:01:35;;;;;;;25.33;12.20;;;;;;;12.21;69.80;102547.16;4945509;28;97006;-88
2021/12/15 02:04:01;;;;;;;27.83;12.10;;;;;;;12.21;69.85;102538.88;4948387;28;97363;-88
2021/12/15 02:06:27;;;;;;;27.80;12.73;;;;;;;12.19;69.79;102546.09;4949142;28;97573;-90
2021/12/15 02:08:53;;;;;;;23.30;12.40;;;;;;;12.20;69.97;102531.84;4946128;28;99590;-88
2021/12/15 02:11:19;;;;;;;30.40;13.07;;;;;;;12.22;69.93;102523.09;4945314;28;97044;-88
2021/12/15 02:13:45;;;;;;;28.20;12.73;;;;;;;12.21;69.96;102527.84;4949613;28;97298;-88
2021/12/15 02:16:10;;;;;;;28.60;11.47;;;;;;;12.22;69.84;102512.06;4949405;28;97753;-89
2021/12/15 02:18:41;;;;;;;21.70;11.67;;;;;;;12.20;69.86;102506.22;4942819;28;102034;-89
2021/12/15 02:21:19;;;;;;;23.57;11.50;;;;;;;12.22;70.14;102514.81;4943942;28;96774;-87
2021/12/15 02:23:50;;;;;;;31.60;13.30;;;;;;;12.20;69.87;102528.31;4945855;28;97088;-89
2021/12/15 02:26:21;;;;;;;25.17;12.60;;;;;;;12.22;70.15;102520.34;4948024;28;104186;-89
2021/12/15 02:28:50;;;;;;;23.43;12.13;;;;;;;12.20;70.10;102520.81;4947095;28;102333;-88
2021/12/15 02:39:31;;;;;;;30.13;13.70;;;;;;;12.15;70.18;102513.13;4944727;28;101765;-89
2021/12/15 02:41:57;;;;;;;31.50;14.50;;;;;;;12.20;70.28;102509.00;4946110;28;98141;-88
2021/12/15 02:44:24;;;;;;;27.47;14.17;;;;;;;12.20;70.20;102507.00;4964943;28;97357;-89
2021/12/15 02:46:52;;;;;;;28.90;14.20;;;;;;;12.23;70.31;102514.34;4944757;28;99664;-89
2021/12/15 02:49:20;;;;;;;32.93;15.20;;;;;;;12.24;70.31;102523.41;4947217;28;98736;-89
2021/12/15 02:51:49;;;;;;;38.07;15.30;;;;;;;12.26;70.26;102518.19;4933273;28;96720;-88
2021/12/15 02:54:16;;;;;;;28.70;14.37;;;;;;;12.26;70.23;102513.44;4959019;28;96971;-88
2021/12/15 02:56:43;;;;;;;31.80;14.30;;;;;;;12.29;70.10;102512.53;4949132;28;96973;-90
2021/12/15 02:59:11;;;;;;;30.40;14.20;;;;;;;12.30;70.12;102507.75;4946484;28;97332;-89
2021/12/15 03:06:55;;;;;;;29.77;14.70;;;;;;;12.29;70.11;102509.78;4945152;28;101583;-89
2021/12/15 03:17:17;;;;;;;26.97;13.37;;;;;;;12.30;70.30;102507.75;4940700;28;97126;-90
2021/12/15 03:19:42;;;;;;;31.40;14.80;;;;;;;12.28;70.26;102513.75;4955372;28;98512;-89
2021/12/15 03:22:07;;;;;;;29.53;14.07;;;;;;;12.31;70.23;102507.31;4947035;28;97045;-89
2021/12/15 03:24:33;;;;;;;28.57;14.70;;;;;;;12.30;70.31;102508.53;4946619;28;97078;-89
2021/12/15 03:27:12;;;;;;;32.90;15.50;;;;;;;12.33;70.16;102506.84;4942962;28;97558;-89
2021/12/15 03:37:38;;;;;;;28.07;14.60;;;;;;;12.35;70.19;102501.63;4947039;28;97236;-90
2021/12/15 03:40:27;;;;;;;33.13;14.20;;;;;;;12.34;70.27;102511.91;4946436;28;97634;-91
2021/12/15 03:42:53;;;;;;;33.50;15.10;;;;;;;12.34;70.24;102502.88;4967596;28;97270;-88
2021/12/15 03:45:25;;;;;;;39.00;14.70;;;;;;;12.35;70.33;102509.91;4945409;28;97310;-89
2021/12/15 03:47:54;;;;;;;28.83;12.93;;;;;;;12.35;70.19;102498.88;4948897;28;98137;-88
2021/12/15 03:50:21;;;;;;;37.30;15.63;;;;;;;12.36;70.29;102503.94;4942369;28;97590;-89
2021/12/15 03:52:49;;;;;;;33.63;15.13;;;;;;;12.35;70.28;102505.19;4961454;28;97163;-90
2021/12/15 03:55:18;;;;;;;32.40;15.13;;;;;;;12.39;70.38;102507.78;4945503;28;96813;-87
2021/12/15 03:57:44;;;;;;;36.57;16.03;;;;;;;12.37;70.30;102521.28;4945656;28;96964;-90
2021/12/15 04:00:13;;;;;;;34.83;15.27;;;;;;;12.36;70.38;102528.03;4951577;28;96926;-87
2021/12/15 04:02:39;;;;;;;37.30;16.27;;;;;;;12.37;70.35;102513.75;4951938;28;98790;-89
2021/12/15 04:05:06;;;;;;;36.73;16.43;;;;;;;12.37;70.07;102507.47;4947856;28;97075;-91
2021/12/15 04:07:32;;;;;;;33.70;14.57;;;;;;;12.38;70.25;102506.25;4970490;28;96855;-89
2021/12/15 04:09:58;;;;;;;31.57;14.07;;;;;;;12.39;70.32;102538.91;4968086;28;96894;-88
2021/12/15 04:12:24;;;;;;;32.23;16.80;;;;;;;12.42;70.31;102515.16;4963051;28;96787;-88
2021/12/15 04:14:56;;;;;;;35.87;14.67;;;;;;;12.38;70.47;102515.31;4948715;28;97202;-89
2021/12/15 04:17:26;;;;;;;34.23;15.40;;;;;;;12.34;70.26;102524.97;4963824;28;100941;-89
2021/12/15 04:19:55;;;;;;;34.40;15.63;;;;;;;12.38;70.37;102515.31;4962909;28;103516;-86
2021/12/15 04:22:22;;;;;;;32.23;16.00;;;;;;;12.34;70.44;102549.81;4963293;28;96825;-87
2021/12/15 04:24:48;;;;;;;34.83;15.70;;;;;;;12.40;70.39;102534.94;4947554;28;97473;-86
2021/12/15 04:27:14;;;;;;;32.90;15.80;;;;;;;12.33;70.43;102510.38;4967043;28;99074;-89
2021/12/15 04:29:40;;;;;;;34.67;15.67;;;;;;;12.40;70.42;102528.66;4953844;28;97650;-89
2021/12/15 04:32:22;;;;;;;35.63;14.90;;;;;;;12.41;70.34;102528.19;4947000;28;97158;-89
2021/12/15 04:34:48;;;;;;;31.83;15.23;;;;;;;12.43;70.31;102520.19;4946399;28;97617;-85
2021/12/15 04:37:14;;;;;;;32.70;15.90;;;;;;;12.45;70.22;102528.03;4958140;28;98765;-88
2021/12/15 04:39:39;;;;;;;37.70;17.00;;;;;;;12.47;70.20;102522.81;4946623;28;99459;-87
2021/12/15 04:42:06;;;;;;;37.37;16.13;;;;;;;12.41;70.39;102550.25;4945484;28;96685;-87
2021/12/15 04:44:33;;;;;;;34.90;17.27;;;;;;;12.41;70.38;102533.69;4944312;28;96842;-87
2021/12/15 04:47:08;;;;;;;31.27;15.07;;;;;;;12.46;70.27;102522.06;4945125;28;96983;-88
2021/12/15 04:49:39;;;;;;;30.53;15.33;;;;;;;12.47;70.55;102517.31;4947624;28;97534;-88
2021/12/15 04:52:06;;;;;;;32.30;15.70;;;;;;;12.45;70.34;102528.03;4946801;28;97010;-88
2021/12/15 04:54:32;;;;;;;36.70;16.80;;;;;;;12.44;70.31;102532.03;4960798;28;97108;-89
2021/12/15 04:56:58;;;;;;;34.43;15.50;;;;;;;12.46;70.45;102532.31;4945249;28;97015;-89
2021/12/15 04:59:23;;;;;;;30.30;15.70;;;;;;;12.46;70.44;102532.31;4944458;28;99577;-89
2021/12/15 05:01:49;;;;;;;34.50;15.80;;;;;;;12.47;70.46;102531.84;4947729;28;96745;-87
2021/12/15 05:04:15;;;;;;;34.77;15.43;;;;;;;12.47;70.51;102528.34;4966843;28;97115;-86
2021/12/15 05:06:40;;;;;;;34.97;16.03;;;;;;;12.49;70.16;102540.44;4948028;28;98782;-87
2021/12/15 05:09:08;;;;;;;29.17;16.17;;;;;;;12.53;70.11;102540.31;4949330;28;97193;-87
2021/12/15 05:11:33;;;;;;;27.57;14.53;;;;;;;12.49;70.23;102543.19;4961240;28;97244;-87
2021/12/15 05:13:59;;;;;;;31.23;14.10;;;;;;;12.51;70.14;102543.53;4947883;28;96729;-89
2021/12/15 05:16:26;;;;;;;28.83;13.20;;;;;;;12.51;70.36;102540.78;4940295;28;97334;-89
2021/12/15 05:18:51;;;;;;;28.30;13.77;;;;;;;12.47;70.40;102545.66;4946195;28;97892;-88
2021/12/15 05:21:17;;;;;;;33.17;14.90;;;;;;;12.50;70.50;102552.25;4945239;28;96676;-90
2021/12/15 05:23:46;;;;;;;36.17;13.30;;;;;;;12.47;70.38;102553.94;4948516;28;97217;-88
2021/12/15 05:26:12;;;;;;;25.33;11.90;;;;;;;12.52;70.45;102563.59;4948968;28;97453;-89
2021/12/15 05:28:38;;;;;;;24.67;13.07;;;;;;;12.52;70.48;102553.34;4950286;28;96889;-86
2021/12/15 05:31:04;;;;;;;26.27;12.60;;;;;;;12.51;70.47;102562.09;4949558;28;97203;-88
2021/12/15 05:33:29;;;;;;;28.77;12.90;;;;;;;12.50;70.63;102555.78;4948468;28;97096;-88
2021/12/15 05:36:08;;;;;;;26.97;12.80;;;;;;;12.56;70.55;102553.94;4949006;28;96832;-87
2021/12/15 05:38:33;;;;;;;29.57;12.70;;;;;;;12.56;70.44;102544.91;4950317;28;101595;-87
2021/12/15 05:40:59;;;;;;;21.67;11.57;;;;;;;12.56;70.47;102547.66;4949511;28;97316;-87
2021/12/15 05:43:25;;;;;;;27.00;13.70;;;;;;;12.54;70.25;102552.88;4949976;28;97054;-88
2021/12/15 05:45:51;;;;;;;28.90;12.00;;;;;;;12.56;70.30;102587.09;4948261;28;99879;-87
2021/12/15 05:48:18;;;;;;;23.90;11.90;;;;;;;12.58;70.47;102548.72;4941191;28;97694;-87
2021/12/15 05:50:47;;;;;;;26.50;14.20;;;;;;;12.57;70.28;102549.97;4960867;28;96918;-89
2021/12/15 05:53:13;;;;;;;28.40;13.60;;;;;;;12.56;70.59;102561.47;4942145;28;96892;-88
2021/12/15 05:55:42;;;;;;;25.93;13.03;;;;;;;12.58;70.40;102575.59;4948014;28;97322;-88
2021/12/15 05:58:07;;;;;;;26.80;13.20;;;;;;;12.61;70.38;102566.38;4948097;28;97685;-89
2021/12/15 06:00:36;;;;;;;30.10;13.90;;;;;;;12.60;70.44;102559.34;4963613;28;97356;-89
2021/12/15 06:03:03;;;;;;;27.30;12.47;;;;;;;12.56;70.31;102564.22;4948198;28;96171;-88
2021/12/15 06:05:29;;;;;;;27.80;13.40;;;;;;;12.58;70.55;102570.06;4947983;28;97145;-87
2021/12/15 06:07:54;;;;;;;25.97;13.03;;;;;;;12.54;70.46;102577.72;4942945;28;99169;-88
2021/12/15 06:10:25;;;;;;;22.93;12.20;;;;;;;12.54;70.61;102572.19;4947592;28;96863;-87
2021/12/15 06:12:52;;;;;;;28.47;13.67;;;;;;;12.51;70.48;102584.19;4946589;28;96818;-88
2021/12/15 06:15:22;;;;;;;29.17;12.33;;;;;;;12.56;70.53;102572.50;4948381;28;96945;-89
2021/12/15 06:17:56;;;;;;;27.00;13.40;;;;;;;12.60;70.38;102581.44;4947583;28;97560;-87
2021/12/15 06:20:22;;;;;;;24.27;12.10;;;;;;;12.60;70.42;102598.00;4945873;28;96945;-86
2021/12/15 06:22:47;;;;;;;22.67;12.93;;;;;;;12.60;70.56;102578.66;4941958;28;97020;-87
2021/12/15 06:25:13;;;;;;;27.30;13.20;;;;;;;12.61;70.43;102591.22;4947940;28;97195;-86
2021/12/15 06:27:40;;;;;;;25.03;13.33;;;;;;;12.63;70.38;102594.31;4948022;28;97574;-88
2021/12/15 06:30:07;;;;;;;27.40;13.50;;;;;;;12.62;70.41;102574.19;4949175;28;97050;-88
2021/12/15 06:32:34;;;;;;;32.23;14.00;;;;;;;12.64;70.22;102588.34;4945677;28;98587;-87
2021/12/15 06:34:59;;;;;;;28.30;13.80;;;;;;;12.65;70.50;102587.09;4950407;28;99723;-89
2021/12/15 06:37:25;;;;;;;28.77;14.53;;;;;;;12.66;70.28;102590.63;4937997;28;97323;-88
2021/12/15 06:39:50;;;;;;;24.67;12.57;;;;;;;12.62;70.16;102610.09;4948800;28;96873;-88
2021/12/15 06:42:16;;;;;;;23.57;11.80;;;;;;;12.61;70.51;102592.00;4947552;28;97201;-87
2021/12/15 06:44:41;;;;;;;21.97;11.30;;;;;;;12.61;70.41;102603.06;4943202;28;99443;-89
2021/12/15 06:47:34;;;;;;;28.37;12.20;;;;;;;12.64;70.36;102587.56;4955052;28;97345;-90
2021/12/15 06:58:12;;;;;;;22.37;10.90;;;;;;;12.59;70.48;102605.50;4951313;28;100063;-85
2021/12/15 07:00:43;;;;;;;25.07;12.67;;;;;;;12.60;70.34;102595.25;4946504;28;97073;-86
2021/12/15 07:03:09;;;;;;;23.60;12.90;;;;;;;12.62;70.43;102623.16;4945088;28;96874;-87
2021/12/15 07:05:34;;;;;;;22.10;11.43;;;;;;;12.64;70.29;102612.41;4965941;28;98092;-87
2021/12/15 07:08:04;;;;;;;24.27;13.07;;;;;;;12.61;70.30;102602.28;4947957;28;98966;-90
2021/12/15 07:10:32;;;;;;;28.43;12.77;;;;;;;12.61;70.30;102603.06;4936876;28;96916;-87
2021/12/15 07:12:59;;;;;;;20.67;11.83;;;;;;;12.61;70.42;102605.03;4963962;28;98334;-89
2021/12/15 07:15:26;;;;;;;24.50;12.97;;;;;;;12.59;70.38;102619.31;4943536;28;104036;-88
2021/12/15 07:17:57;;;;;;;22.87;13.10;;;;;;;12.61;70.32;102616.09;4955805;28;96604;-86
2021/12/15 07:20:35;;;;;;;25.53;12.60;;;;;;;12.63;70.47;102617.16;4947651;28;96947;-88
2021/12/15 07:23:03;;;;;;;22.83;12.53;;;;;;;12.61;70.06;102619.63;4943656;28;97063;-87
2021/12/15 07:25:30;;;;;;;25.00;13.50;;;;;;;12.60;70.35;102644.94;4951196;28;98153;-87
2021/12/15 07:27:56;;;;;;;27.47;13.50;;;;;;;12.59;70.29;102629.59;4946439;28;97575;-88
2021/12/15 07:30:22;;;;;;;30.33;15.40;;;;;;;12.61;70.38;102616.09;4944179;28;97091;-89
2021/12/15 07:32:48;;;;;;;25.67;13.60;;;;;;;12.58;70.35;102639.13;4963503;28;97105;-88
2021/12/15 07:35:17;;;;;;;30.77;15.97;;;;;;;12.51;70.25;102645.69;4946934;28;97160;-86
2021/12/15 07:37:44;;;;;;;31.73;15.40;;;;;;;12.58;70.24;102633.59;4944745;28;97138;-87
2021/12/15 07:40:19;;;;;;;31.40;16.27;;;;;;;12.59;70.27;102635.09;4962557;28;96904;-88
2021/12/15 07:42:57;;;;;;;33.30;15.00;;;;;;;12.57;70.17;102643.84;4960226;28;97151;-87
2021/12/15 07:45:25;;;;;;;30.40;14.10;;;;;;;12.59;70.27;102635.09;4945608;28;104244;-88
2021/12/15 07:47:54;;;;;;;34.87;15.60;;;;;;;12.60;70.16;102628.38;4955234;28;97334;-87
2021/12/15 07:50:20;;;;;;;30.87;15.03;;;;;;;12.58;70.37;102633.59;4946459;28;97302;-88
2021/12/15 07:52:48;;;;;;;27.57;14.67;;;;;;;12.57;70.36;102630.06;4946398;28;97046;-88
2021/12/15 07:55:14;;;;;;;28.50;15.07;;;;;;;12.58;70.30;102633.59;4943935;28;98072;-87
2021/12/15 07:57:39;;;;;;;28.17;16.33;;;;;;;12.58;70.34;102630.81;4966267;28;97143;-89
2021/12/15 08:00:07;;;;;;;35.57;17.60;;;;;;;12.58;70.35;102633.59;4967172;28;96862;-88
2021/12/15 08:02:33;;;;;;;31.60;15.00;;;;;;;12.60;70.10;102640.16;4946259;28;97144;-88
2021/12/15 08:04:58;;;;;;;32.40;16.77;;;;;;;12.62;70.13;102646.00;4945623;28;97976;-88
2021/12/15 08:07:24;;;;;;;36.73;17.00;;;;;;;12.58;70.45;102645.38;4938012;28;97101;-88
2021/12/15 08:09:50;;;;;;;37.90;17.47;;;;;;;12.59;70.29;102651.69;4950081;28;96831;-89
2021/12/15 08:12:16;;;;;;;38.40;16.97;;;;;;;12.56;70.34;102647.06;4946630;28;96906;-87
2021/12/15 08:14:41;;;;;;;34.93;17.33;;;;;;;12.50;70.39;102646.91;4946473;28;96900;-88
2021/12/15 08:17:07;;;;;;;39.10;18.27;;;;;;;12.52;70.36;102654.72;4949017;28;98091;-88
2021/12/15 08:19:33;;;;;;;34.83;17.37;;;;;;;12.56;70.25;102638.78;4947590;28;97121;-87
2021/12/15 08:21:59;;;;;;;33.30;17.60;;;;;;;12.58;70.37;102667.47;4945734;28;96591;-88
2021/12/15 08:24:24;;;;;;;36.00;18.00;;;;;;;12.53;70.27;102672.84;4947533;28;97446;-90
2021/12/15 08:26:50;;;;;;;37.60;17.77;;;;;;;12.56;70.26;102644.28;4945995;28;97847;-89
2021/12/15 08:29:15;;;;;;;33.37;16.63;;;;;;;12.56;70.22;102647.84;4945633;28;97241;-87
2021/12/15 08:31:41;;;;;;;33.97;17.20;;;;;;;12.54;70.34;102650.28;4962943;28;96569;-88
2021/12/15 08:34:08;;;;;;;41.30;18.37;;;;;;;12.49;70.48;102705.34;4943984;28;97358;-88
2021/12/15 08:36:36;;;;;;;39.27;18.07;;;;;;;12.51;70.31;102676.06;4941453;28;96929;-88
2021/12/15 08:39:03;;;;;;;35.00;17.70;;;;;;;12.52;70.30;102649.19;4956167;28;96996;-87
2021/12/15 08:41:29;;;;;;;35.30;16.67;;;;;;;12.56;70.26;102664.41;4945270;28;97786;-88
2021/12/15 08:43:56;;;;;;;37.63;18.00;;;;;;;12.58;70.36;102667.47;4944525;28;97064;-86
2021/12/15 08:46:28;;;;;;;33.60;18.10;;;;;;;12.54;70.26;102675.13;4955881;28;96960;-88
2021/12/15 08:48:55;;;;;;;36.10;16.50;;;;;;;12.61;70.27;102652.75;4940103;28;96945;-90
2021/12/15 08:51:26;;;;;;;36.77;18.23;;;;;;;12.60;70.27;102647.72;4945403;28;97047;-89
2021/12/15 08:54:04;;;;;;;32.80;17.20;;;;;;;12.63;70.28;102657.81;4943368;28;102241;-88
2021/12/15 08:56:30;;;;;;;33.23;16.77;;;;;;;12.57;70.22;102677.00;4945858;28;100518;-87
2021/12/15 08:58:56;;;;;;;33.87;17.43;;;;;;;12.57;70.32;102654.91;4948427;28;96747;-87
2021/12/15 09:01:24;;;;;;;31.47;16.13;;;;;;;12.61;70.25;102663.03;4943842;28;97016;-87
2021/12/15 09:03:49;;;;;;;33.60;16.77;;;;;;;12.61;70.34;102660.28;4942015;28;99804;-86
2021/12/15 09:06:15;;;;;;;39.40;18.80;;;;;;;12.61;70.24;102674.84;4945327;28;97380;-87
2021/12/15 09:08:43;;;;;;;36.00;17.70;;;;;;;12.62;70.32;102665.31;4943856;28;96790;-88
2021/12/15 09:11:12;;;;;;;36.47;17.37;;;;;;;12.63;70.25;102666.88;4946421;28;97458;-88
2021/12/15 09:13:38;;;;;;;35.80;16.27;;;;;;;12.65;70.16;102672.72;4943341;28;102270;-85
2021/12/15 09:16:08;;;;;;;33.50;16.57;;;;;;;12.67;70.24;102686.06;4943732;28;97569;-86
2021/12/15 09:18:34;;;;;;;32.27;17.07;;;;;;;12.67;70.09;102691.56;4931195;28;97052;-88
2021/12/15 09:21:00;;;;;;;39.17;17.77;;;;;;;12.69;70.29;102678.84;4942714;28;96965;-87
2021/12/15 09:23:27;;;;;;;38.37;18.10;;;;;;;12.68;70.14;102693.13;4942364;28;97839;-88
2021/12/15 09:25:53;;;;;;;37.73;17.30;;;;;;;12.67;70.13;102697.09;4943627;28;97652;-86
2021/12/15 09:28:19;;;;;;;37.60;17.63;;;;;;;12.66;70.19;102679.00;4940607;28;96986;-87
2021/12/15 09:30:47;;;;;;;36.40;17.87;;;;;;;12.69;70.33;102678.06;4944608;28;96757;-89
2021/12/15 09:33:20;;;;;;;33.07;17.00;;;;;;;12.69;70.17;102692.66;4951009;28;96990;-90
2021/12/15 09:35:47;;;;;;;32.33;16.57;;;;;;;12.70;70.30;102693.44;4941796;28;97503;-87
2021/12/15 09:38:17;;;;;;;37.90;18.67;;;;;;;12.73;70.17;102682.22;4942804;28;97179;-88
2021/12/15 09:40:44;;;;;;;31.10;15.90;;;;;;;12.75;70.25;102682.53;4939657;28;96973;-88
2021/12/15 09:43:11;;;;;;;31.17;16.90;;;;;;;12.76;70.09;102708.16;4942525;28;97238;-87
2021/12/15 10:05:39;;;;;;;28.57;16.20;;;;;;;12.74;70.00;102705.09;4943210;28;100386;-88
2021/12/15 10:19:09;;;;;;;28.80;16.70;;;;;;;12.75;70.12;102692.84;4944630;28;100055;-88
2021/12/15 10:21:34;;;;;;;32.33;16.60;;;;;;;12.76;70.09;102688.84;4940613;28;97093;-87
2021/12/15 10:24:01;;;;;;;24.57;14.53;;;;;;;12.78;69.99;102684.41;4943337;28;97304;-88
2021/12/15 10:26:27;;;;;;;30.13;16.47;;;;;;;12.78;69.94;102680.84;4935614;28;97316;-86
2021/12/15 10:28:53;;;;;;;28.00;15.97;;;;;;;12.80;69.84;102679.19;4946819;28;96720;-87
2021/12/15 10:31:27;;;;;;;28.40;15.67;;;;;;;12.74;69.96;102697.59;4946219;28;97306;-89
2021/12/15 10:33:57;;;;;;;26.90;15.63;;;;;;;12.81;70.01;102682.72;4941417;28;97965;-88
2021/12/15 10:36:26;;;;;;;28.93;15.60;;;;;;;12.82;69.97;102683.50;4956921;28;100567;-85
2021/12/15 10:38:55;;;;;;;30.93;14.43;;;;;;;12.81;70.00;102685.47;4945254;28;100207;-87
2021/12/15 10:41:22;;;;;;;31.37;17.30;;;;;;;12.83;69.92;102683.03;4945523;28;97163;-87
2021/12/15 10:44:00;;;;;;;30.57;18.10;;;;;;;12.84;69.72;102687.34;4944449;28;96929;-87
2021/12/15 10:46:27;;;;;;;26.03;15.57;;;;;;;12.83;69.86;102691.31;4947819;28;97154;-87
2021/12/15 10:48:58;;;;;;;32.37;16.60;;;;;;;12.83;69.99;102685.78;4940881;28;97776;-87
2021/12/15 10:51:29;;;;;;;25.00;15.27;;;;;;;12.84;69.87;102684.56;4960976;28;96979;-87
2021/12/15 10:53:59;;;;;;;24.43;14.80;;;;;;;12.85;69.94;102679.78;4946027;28;96733;-88
2021/12/15 10:56:28;;;;;;;22.77;13.60;;;;;;;12.82;69.96;102693.28;4943938;28;98141;-88
2021/12/15 10:58:58;;;;;;;23.40;14.70;;;;;;;12.88;69.88;102685.19;4945065;28;97044;-87
2021/12/15 11:01:39;;;;;;;25.37;14.27;;;;;;;12.89;69.77;102686.72;4965117;28;97300;-86
2021/12/15 11:04:23;;;;;;;27.60;15.43;;;;;;;12.87;69.74;102686.41;4947539;28;97713;-87
2021/12/15 11:07:16;;;;;;;26.10;14.27;;;;;;;12.88;69.79;102684.41;4945347;28;102161;-89
2021/12/15 11:09:52;;;;;;;23.20;13.70;;;;;;;12.91;69.81;102683.50;4941687;28;102051;-89
2021/12/15 11:12:40;;;;;;;25.77;14.40;;;;;;;12.90;69.58;102679.97;4947416;28;96860;-89
2021/12/15 11:15:16;;;;;;;23.20;14.10;;;;;;;12.92;69.87;102677.50;4957095;28;97131;-87
2021/12/15 11:17:52;;;;;;;23.90;14.30;;;;;;;12.93;69.75;102687.31;4944777;28;100008;-87
2021/12/15 11:20:35;;;;;;;27.67;15.40;;;;;;;12.92;69.73;102679.50;4943050;28;97725;-88
2021/12/15 11:23:15;;;;;;;27.87;16.60;;;;;;;12.89;69.60;102683.19;4946322;28;99261;-88
2021/12/15 11:25:43;;;;;;;25.27;15.47;;;;;;;12.94;69.82;102674.28;4940434;28;98417;-87
2021/12/15 11:28:14;;;;;;;24.43;15.17;;;;;;;12.96;69.72;102675.38;4945541;28;97008;-87
2021/12/15 11:30:54;;;;;;;29.17;15.97;;;;;;;12.97;69.79;102673.38;4949494;28;101873;-88
2021/12/15 11:33:24;;;;;;;25.17;14.33;;;;;;;12.97;69.83;102667.84;4942482;28;98762;-88
2021/12/15 11:36:00;;;;;;;29.23;15.70;;;;;;;12.98;69.48;102685.94;4946434;28;97360;-89
2021/12/15 11:38:35;;;;;;;24.60;14.90;;;;;;;13.01;69.70;102674.00;4935458;28;99780;-88
2021/12/15 11:41:23;;;;;;;23.23;14.83;;;;;;;13.00;69.48;102673.22;4943728;28;99163;-87
2021/12/15 11:43:58;;;;;;;25.20;16.30;;;;;;;13.05;69.68;102674.63;4938731;28;97318;-85
2021/12/15 11:46:32;;;;;;;24.10;14.33;;;;;;;13.06;69.59;102667.88;4940488;28;97125;-86
2021/12/15 11:49:03;;;;;;;21.80;14.10;;;;;;;13.09;69.55;102667.72;4947557;28;101865;-88
2021/12/15 11:51:45;;;;;;;27.00;14.23;;;;;;;13.10;69.35;102660.97;4941020;28;101892;-87
2021/12/15 11:54:30;;;;;;;25.43;14.90;;;;;;;13.10;69.03;102663.75;4943794;28;98469;-89
2021/12/15 11:57:00;;;;;;;25.83;14.13;;;;;;;13.09;69.62;102655.88;4945080;28;97032;-86
2021/12/15 11:59:36;;;;;;;21.40;13.40;;;;;;;13.09;69.38;102659.44;4945358;28;96843;-88
2021/12/15 12:02:23;;;;;;;20.40;13.97;;;;;;;13.12;69.47;102672.34;4945604;28;96683;-87
2021/12/15 12:04:52;;;;;;;24.07;15.17;;;;;;;13.17;69.59;102663.41;4942547;28;99002;-87
2021/12/15 12:07:41;;;;;;;28.47;16.57;;;;;;;13.18;69.17;102672.47;4957823;28;97014;-89
2021/12/15 12:10:12;;;;;;;22.10;14.30;;;;;;;13.19;69.43;102669.25;4940810;28;98547;-86
2021/12/15 12:12:49;;;;;;;25.83;15.40;;;;;;;13.22;69.34;102670.31;4943563;28;99962;-87
2021/12/15 12:15:17;;;;;;;25.20;15.10;;;;;;;13.24;69.36;102668.63;4959131;28;96893;-88
2021/12/15 12:17:46;;;;;;;23.80;14.00;;;;;;;13.25;69.26;102686.00;4946965;28;97043;-89
2021/12/15 12:20:18;;;;;;;25.70;15.50;;;;;;;13.18;69.07;102667.72;4940754;28;99941;-88
2021/12/15 12:22:46;;;;;;;25.80;13.97;;;;;;;13.23;69.16;102669.09;4942818;28;98577;-88
2021/12/15 12:25:20;;;;;;;22.27;14.27;;;;;;;13.24;69.18;102660.34;4940725;28;97384;-87
2021/12/15 12:27:47;;;;;;;25.67;15.40;;;;;;;13.25;68.93;102670.19;4943351;28;96868;-86
2021/12/15 12:30:22;;;;;;;24.97;15.37;;;;;;;13.27;69.06;102659.44;4942601;28;97456;-88
2021/12/15 12:32:49;;;;;;;24.50;14.67;;;;;;;13.28;69.14;102663.72;4944611;28;98696;-87
2021/12/15 12:35:23;;;;;;;23.33;14.17;;;;;;;13.27;68.97;102670.50;4957743;28;97037;-89
2021/12/15 12:38:09;;;;;;;28.70;15.67;;;;;;;13.27;68.88;102669.72;4941036;28;96838;-88